sensor_id;sensor_type;location;lat;lon;timestamp;pressure;altitude;pressure_sealevel;temperature;humidity
62420;BME280;48460;51.616;5.426;2022-10-17T00:02:20;101555.91;;;13.05;100.00
62420;BME280;48460;51.616;5.426;2022-10-17T00:04:45;101555.16;;;13.03;100.00
62420;BME280;48460;51.616;5.426;2022-10-17T00:07:13;101551.63;;;13.03;100.00
62420;BME280;48460;51.616;5.426;2022-10-17T00:09:42;101556.00;;;13.04;100.00
62420;BME280;48460;51.616;5.426;2022-10-17T00:15:30;101546.44;;;13.01;100.00
62420;BME280;48460;51.616;5.426;2022-10-17T00:17:55;101550.88;;;13.00;100.00
62420;BME280;48460;51.616;5.426;2022-10-17T00:20:21;101541.22;;;12.99;100.00
62420;BME280;48460;51.616;5.426;2022-10-17T00:22:49;101545.06;;;12.94;100.00
62420;BME280;48460;51.616;5.426;2022-10-17T00:25:20;101541.47;;;12.95;100.00
62420;BME280;48460;51.616;5.426;2022-10-17T00:27:46;101533.63;;;12.93;100.00
62420;BME280;48460;51.616;5.426;2022-10-17T00:30:14;101534.50;;;12.94;100.00
62420;BME280;48460;51.616;5.426;2022-10-17T00:32:42;101536.25;;;12.93;100.00
62420;BME280;48460;51.616;5.426;2022-10-17T00:35:08;101528.28;;;12.95;100.00
62420;BME280;48460;51.616;5.426;2022-10-17T00:37:35;101524.78;;;12.94;100.00
62420;BME280;48460;51.616;5.426;2022-10-17T00:40:03;101521.19;;;12.95;100.00
62420;BME280;48460;51.616;5.426;2022-10-17T00:42:31;101525.69;;;12.93;100.00
62420;BME280;48460;51.616;5.426;2022-10-17T00:45:15;101524.84;;;12.93;100.00
62420;BME280;48460;51.616;5.426;2022-10-17T00:50:47;101524.84;;;12.93;100.00
62420;BME280;48460;51.616;5.426;2022-10-17T00:53:16;101529.28;;;12.92;100.00
62420;BME280;48460;51.616;5.426;2022-10-17T00:55:48;101530.91;;;12.95;100.00
62420;BME280;48460;51.616;5.426;2022-10-17T00:58:15;101532.59;;;12.96;100.00
62420;BME280;48460;51.616;5.426;2022-10-17T01:00:45;101533.47;;;12.96;100.00
62420;BME280;48460;51.616;5.426;2022-10-17T01:03:11;101532.53;;;12.97;100.00
62420;BME280;48460;51.616;5.426;2022-10-17T01:05:40;101522.84;;;12.98;100.00
62420;BME280;48460;51.616;5.426;2022-10-17T01:08:07;101517.47;;;12.99;100.00
62420;BME280;48460;51.616;5.426;2022-10-17T01:14:04;101504.09;;;13.03;100.00
62420;BME280;48460;51.616;5.426;2022-10-17T01:30:29;101513.97;;;13.16;100.00
62420;BME280;48460;51.616;5.426;2022-10-17T01:35:55;101516.22;;;13.24;100.00
62420;BME280;48460;51.616;5.426;2022-10-17T01:38:32;101507.31;;;13.27;100.00
62420;BME280;48460;51.616;5.426;2022-10-17T01:41:03;101496.66;;;13.28;100.00
62420;BME280;48460;51.616;5.426;2022-10-17T01:43:41;101508.00;;;13.30;100.00
62420;BME280;48460;51.616;5.426;2022-10-17T01:49:53;101497.94;;;13.37;100.00
62420;BME280;48460;51.616;5.426;2022-10-17T01:55:40;101504.78;;;13.41;100.00
62420;BME280;48460;51.616;5.426;2022-10-17T01:58:15;101507.25;;;13.44;100.00
62420;BME280;48460;51.616;5.426;2022-10-17T02:01:16;101503.75;;;13.43;100.00
62420;BME280;48460;51.616;5.426;2022-10-17T02:03:46;101506.34;;;13.45;100.00
62420;BME280;48460;51.616;5.426;2022-10-17T02:06:20;101504.59;;;13.44;100.00
62420;BME280;48460;51.616;5.426;2022-10-17T02:08:56;101494.91;;;13.44;100.00
62420;BME280;48460;51.616;5.426;2022-10-17T02:11:24;101495.81;;;13.43;100.00
62420;BME280;48460;51.616;5.426;2022-10-17T02:16:38;101491.41;;;13.44;100.00
62420;BME280;48460;51.616;5.426;2022-10-17T02:26:06;101485.19;;;13.45;100.00
62420;BME280;48460;51.616;5.426;2022-10-17T02:28:40;101479.06;;;13.44;100.00
62420;BME280;48460;51.616;5.426;2022-10-17T02:34:54;101488.84;;;13.42;100.00
62420;BME280;48460;51.616;5.426;2022-10-17T02:37:24;101488.00;;;13.42;100.00
62420;BME280;48460;51.616;5.426;2022-10-17T02:39:53;101484.41;;;13.43;100.00
62420;BME280;48460;51.616;5.426;2022-10-17T02:42:22;101488.00;;;13.42;100.00
62420;BME280;48460;51.616;5.426;2022-10-17T02:44:52;101494.13;;;13.42;100.00
62420;BME280;48460;51.616;5.426;2022-10-17T02:47:33;101490.66;;;13.42;100.00
62420;BME280;48460;51.616;5.426;2022-10-17T02:53:57;101477.28;;;13.45;100.00
62420;BME280;48460;51.616;5.426;2022-10-17T02:59:50;101484.00;;;13.51;100.00
62420;BME280;48460;51.616;5.426;2022-10-17T03:02:51;101485.59;;;13.53;100.00
62420;BME280;48460;51.616;5.426;2022-10-17T03:05:22;101483.91;;;13.52;100.00
62420;BME280;48460;51.616;5.426;2022-10-17T03:08:31;101486.50;;;13.54;100.00
62420;BME280;48460;51.616;5.426;2022-10-17T03:11:00;101479.47;;;13.53;100.00
62420;BME280;48460;51.616;5.426;2022-10-17T03:13:25;101488.25;;;13.53;100.00
62420;BME280;48460;51.616;5.426;2022-10-17T03:15:53;101480.09;;;13.58;100.00
62420;BME280;48460;51.616;5.426;2022-10-17T03:18:30;101474.75;;;13.59;100.00
62420;BME280;48460;51.616;5.426;2022-10-17T03:21:09;101471.94;;;13.62;100.00
62420;BME280;48460;51.616;5.426;2022-10-17T03:23:34;101474.31;;;13.67;100.00
62420;BME280;48460;51.616;5.426;2022-10-17T03:26:05;101483.75;;;13.71;100.00
62420;BME280;48460;51.616;5.426;2022-10-17T03:28:31;101477.88;;;13.82;100.00
62420;BME280;48460;51.616;5.426;2022-10-17T03:31:19;101478.41;;;13.88;100.00
62420;BME280;48460;51.616;5.426;2022-10-17T03:33:44;101473.88;;;13.90;100.00
62420;BME280;48460;51.616;5.426;2022-10-17T03:36:31;101481.66;;;13.94;100.00
62420;BME280;48460;51.616;5.426;2022-10-17T03:39:43;101478.47;;;14.03;100.00
62420;BME280;48460;51.616;5.426;2022-10-17T03:42:09;101473.03;;;14.06;100.00
62420;BME280;48460;51.616;5.426;2022-10-17T03:44:40;101489.31;;;14.14;100.00
62420;BME280;48460;51.616;5.426;2022-10-17T03:47:05;101476.00;;;14.16;100.00
62420;BME280;48460;51.616;5.426;2022-10-17T03:49:33;101467.97;;;14.17;100.00
62420;BME280;48460;51.616;5.426;2022-10-17T03:52:01;101466.84;;;14.21;100.00
62420;BME280;48460;51.616;5.426;2022-10-17T03:54:30;101464.97;;;14.23;100.00
62420;BME280;48460;51.616;5.426;2022-10-17T03:56:57;101471.78;;;14.27;100.00
62420;BME280;48460;51.616;5.426;2022-10-17T03:59:25;101484.00;;;14.30;100.00
62420;BME280;48460;51.616;5.426;2022-10-17T04:01:53;101476.00;;;14.31;100.00
62420;BME280;48460;51.616;5.426;2022-10-17T04:04:19;101482.13;;;14.32;100.00
62420;BME280;48460;51.616;5.426;2022-10-17T04:06:44;101500.28;;;14.38;100.00
62420;BME280;48460;51.616;5.426;2022-10-17T04:09:13;101495.59;;;14.43;100.00
62420;BME280;48460;51.616;5.426;2022-10-17T04:11:46;101494.56;;;14.46;100.00
62420;BME280;48460;51.616;5.426;2022-10-17T04:14:13;101497.13;;;14.47;100.00
62420;BME280;48460;51.616;5.426;2022-10-17T04:16:39;101493.78;;;14.44;100.00
62420;BME280;48460;51.616;5.426;2022-10-17T04:19:04;101499.69;;;14.49;100.00
62420;BME280;48460;51.616;5.426;2022-10-17T04:21:30;101496.78;;;14.53;100.00
62420;BME280;48460;51.616;5.426;2022-10-17T04:23:58;101508.16;;;14.55;100.00
62420;BME280;48460;51.616;5.426;2022-10-17T04:26:24;101501.06;;;14.56;100.00
62420;BME280;48460;51.616;5.426;2022-10-17T04:28:58;101505.56;;;14.54;100.00
62420;BME280;48460;51.616;5.426;2022-10-17T04:31:23;101513.16;;;14.60;100.00
62420;BME280;48460;51.616;5.426;2022-10-17T04:33:52;101520.00;;;14.64;100.00
62420;BME280;48460;51.616;5.426;2022-10-17T04:36:19;101513.84;;;14.64;100.00
62420;BME280;48460;51.616;5.426;2022-10-17T04:38:49;101516.50;;;14.64;100.00
62420;BME280;48460;51.616;5.426;2022-10-17T04:41:17;101517.16;;;14.67;100.00
62420;BME280;48460;51.616;5.426;2022-10-17T04:43:43;101527.59;;;14.70;100.00
62420;BME280;48460;51.616;5.426;2022-10-17T04:46:11;101540.03;;;14.68;100.00
62420;BME280;48460;51.616;5.426;2022-10-17T04:48:41;101550.47;;;14.71;100.00
62420;BME280;48460;51.616;5.426;2022-10-17T04:51:16;101539.50;;;14.77;100.00
62420;BME280;48460;51.616;5.426;2022-10-17T04:53:43;101549.00;;;14.81;100.00
62420;BME280;48460;51.616;5.426;2022-10-17T04:56:17;101548.81;;;14.85;100.00
62420;BME280;48460;51.616;5.426;2022-10-17T04:58:48;101554.69;;;14.90;100.00
62420;BME280;48460;51.616;5.426;2022-10-17T05:01:17;101555.38;;;14.93;100.00
62420;BME280;48460;51.616;5.426;2022-10-17T05:03:44;101553.66;;;14.92;100.00
62420;BME280;48460;51.616;5.426;2022-10-17T05:06:24;101556.03;;;14.97;100.00
62420;BME280;48460;51.616;5.426;2022-10-17T05:09:02;101555.09;;;14.98;100.00
62420;BME280;48460;51.616;5.426;2022-10-17T05:11:28;101553.38;;;14.97;100.00
62420;BME280;48460;51.616;5.426;2022-10-17T05:14:02;101551.78;;;14.94;100.00
62420;BME280;48460;51.616;5.426;2022-10-17T05:16:28;101545.03;;;14.89;100.00
62420;BME280;48460;51.616;5.426;2022-10-17T05:18:55;101548.13;;;14.81;100.00
62420;BME280;48460;51.616;5.426;2022-10-17T05:21:23;101549.06;;;14.80;100.00
62420;BME280;48460;51.616;5.426;2022-10-17T05:23:50;101549.44;;;14.74;100.00
62420;BME280;48460;51.616;5.426;2022-10-17T05:26:20;101553.09;;;14.71;100.00
62420;BME280;48460;51.616;5.426;2022-10-17T05:28:48;101574.97;;;14.75;100.00
62420;BME280;48460;51.616;5.426;2022-10-17T05:31:17;101568.75;;;14.76;100.00
62420;BME280;48460;51.616;5.426;2022-10-17T05:33:45;101564.19;;;14.78;100.00
62420;BME280;48460;51.616;5.426;2022-10-17T05:36:10;101563.94;;;14.82;100.00
62420;BME280;48460;51.616;5.426;2022-10-17T05:38:38;101567.34;;;14.85;100.00
62420;BME280;48460;51.616;5.426;2022-10-17T05:41:04;101566.41;;;14.86;100.00
62420;BME280;48460;51.616;5.426;2022-10-17T05:43:43;101572.56;;;14.86;100.00
62420;BME280;48460;51.616;5.426;2022-10-17T05:46:09;101568.19;;;14.85;100.00
62420;BME280;48460;51.616;5.426;2022-10-17T05:48:47;101579.53;;;14.87;100.00
62420;BME280;48460;51.616;5.426;2022-10-17T05:51:16;101575.88;;;14.90;100.00
62420;BME280;48460;51.616;5.426;2022-10-17T05:53:52;101579.09;;;14.95;100.00
62420;BME280;48460;51.616;5.426;2022-10-17T05:56:17;101580.63;;;14.99;100.00
62420;BME280;48460;51.616;5.426;2022-10-17T05:58:50;101580.44;;;15.02;100.00
62420;BME280;48460;51.616;5.426;2022-10-17T06:07:23;101580.78;;;15.12;100.00
62420;BME280;48460;51.616;5.426;2022-10-17T06:12:47;101575.97;;;15.18;100.00
62420;BME280;48460;51.616;5.426;2022-10-17T06:15:21;101575.78;;;15.21;100.00
62420;BME280;48460;51.616;5.426;2022-10-17T06:18:18;101575.78;;;15.21;100.00
62420;BME280;48460;51.616;5.426;2022-10-17T06:21:09;101582.03;;;15.20;100.00
62420;BME280;48460;51.616;5.426;2022-10-17T06:30:02;101595.66;;;15.28;100.00
62420;BME280;48460;51.616;5.426;2022-10-17T07:54:01;101811.81;;;15.80;100.00
62420;BME280;48460;51.616;5.426;2022-10-17T07:56:27;101794.19;;;15.63;100.00
62420;BME280;48460;51.616;5.426;2022-10-17T07:58:56;101799.38;;;15.50;100.00
62420;BME280;48460;51.616;5.426;2022-10-17T08:01:27;101776.47;;;15.34;100.00
62420;BME280;48460;51.616;5.426;2022-10-17T08:04:13;101763.84;;;15.23;100.00
62420;BME280;48460;51.616;5.426;2022-10-17T08:06:45;101762.47;;;15.16;100.00
62420;BME280;48460;51.616;5.426;2022-10-17T08:09:12;101771.09;;;15.19;100.00
62420;BME280;48460;51.616;5.426;2022-10-17T08:11:58;101766.91;;;15.15;100.00
62420;BME280;48460;51.616;5.426;2022-10-17T08:18:00;101780.94;;;15.17;100.00
62420;BME280;48460;51.616;5.426;2022-10-17T08:21:12;101782.88;;;15.14;100.00
62420;BME280;48460;51.616;5.426;2022-10-17T08:23:49;101819.97;;;15.14;100.00
62420;BME280;48460;51.616;5.426;2022-10-17T08:29:25;101870.59;;;15.09;100.00
62420;BME280;48460;51.616;5.426;2022-10-17T08:31:51;101866.66;;;15.16;100.00
62420;BME280;48460;51.616;5.426;2022-10-17T08:34:42;101849.13;;;15.14;100.00
62420;BME280;48460;51.616;5.426;2022-10-17T08:37:37;101835.47;;;15.06;100.00
62420;BME280;48460;51.616;5.426;2022-10-17T08:40:44;101833.72;;;15.04;100.00
62420;BME280;48460;51.616;5.426;2022-10-17T08:46:52;101837.66;;;15.13;100.00
62420;BME280;48460;51.616;5.426;2022-10-17T09:27:23;101909.31;;;15.12;100.00
62420;BME280;48460;51.616;5.426;2022-10-17T10:49:44;101942.88;;;15.44;100.00
62420;BME280;48460;51.616;5.426;2022-10-17T12:51:18;102043.19;;;16.17;100.00
62420;BME280;48460;51.616;5.426;2022-10-17T12:54:10;102049.88;;;16.24;100.00
62420;BME280;48460;51.616;5.426;2022-10-17T12:59:49;102062.63;;;16.33;100.00
62420;BME280;48460;51.616;5.426;2022-10-17T13:57:40;102154.53;;;16.36;100.00
62420;BME280;48460;51.616;5.426;2022-10-17T15:09:34;102192.72;;;16.49;100.00
62420;BME280;48460;51.616;5.426;2022-10-17T15:13:17;102181.25;;;16.49;100.00
62420;BME280;48460;51.616;5.426;2022-10-17T15:19:48;102186.63;;;16.47;100.00
62420;BME280;48460;51.616;5.426;2022-10-17T15:36:24;102235.38;;;16.62;100.00
62420;BME280;48460;51.616;5.426;2022-10-17T15:39:21;102232.38;;;16.52;100.00
62420;BME280;48460;51.616;5.426;2022-10-17T15:41:52;102235.38;;;16.46;100.00
62420;BME280;48460;51.616;5.426;2022-10-17T15:46:56;102233.38;;;16.34;100.00
62420;BME280;48460;51.616;5.426;2022-10-17T15:49:25;102249.56;;;16.29;100.00
62420;BME280;48460;51.616;5.426;2022-10-17T15:57:32;102265.75;;;16.25;100.00
62420;BME280;48460;51.616;5.426;2022-10-17T16:00:19;102256.63;;;16.13;100.00
62420;BME280;48460;51.616;5.426;2022-10-17T16:07:01;102265.06;;;16.04;100.00
62420;BME280;48460;51.616;5.426;2022-10-17T16:09:58;102273.63;;;16.09;100.00
62420;BME280;48460;51.616;5.426;2022-10-17T16:15:16;102281.06;;;16.02;100.00
62420;BME280;48460;51.616;5.426;2022-10-17T17:12:08;102302.88;;;15.55;100.00
62420;BME280;48460;51.616;5.426;2022-10-17T17:14:45;102304.81;;;15.52;100.00
62420;BME280;48460;51.616;5.426;2022-10-17T17:17:11;102322.22;;;15.57;100.00
62420;BME280;48460;51.616;5.426;2022-10-17T17:19:47;102309.31;;;15.49;100.00
62420;BME280;48460;51.616;5.426;2022-10-17T17:22:23;102312.72;;;15.53;100.00
62420;BME280;48460;51.616;5.426;2022-10-17T17:25:17;102310.22;;;15.50;100.00
62420;BME280;48460;51.616;5.426;2022-10-17T17:28:02;102313.22;;;15.42;100.00
62420;BME280;48460;51.616;5.426;2022-10-17T17:30:54;102318.63;;;15.41;100.00
62420;BME280;48460;51.616;5.426;2022-10-17T17:33:55;102338.59;;;15.48;100.00
62420;BME280;48460;51.616;5.426;2022-10-17T17:36:30;102340.44;;;15.46;100.00
62420;BME280;48460;51.616;5.426;2022-10-17T17:39:17;102345.59;;;15.49;100.00
62420;BME280;48460;51.616;5.426;2022-10-17T17:42:06;102345.88;;;15.43;100.00
62420;BME280;48460;51.616;5.426;2022-10-17T17:44:59;102348.00;;;15.36;100.00
62420;BME280;48460;51.616;5.426;2022-10-17T17:47:36;102341.28;;;15.29;100.00
62420;BME280;48460;51.616;5.426;2022-10-17T17:50:12;102351.13;;;15.25;100.00
62420;BME280;48460;51.616;5.426;2022-10-17T17:52:44;102363.25;;;15.31;100.00
62420;BME280;48460;51.616;5.426;2022-10-17T17:58:51;102366.03;;;15.28;100.00
62420;BME280;48460;51.616;5.426;2022-10-17T18:01:21;102358.31;;;15.23;100.00
62420;BME280;48460;51.616;5.426;2022-10-17T18:03:59;102363.63;;;15.23;100.00
62420;BME280;48460;51.616;5.426;2022-10-17T18:06:38;102370.84;;;15.20;100.00
62420;BME280;48460;51.616;5.426;2022-10-17T18:09:44;102374.06;;;15.26;100.00
62420;BME280;48460;51.616;5.426;2022-10-17T18:12:53;102360.47;;;15.15;100.00
62420;BME280;48460;51.616;5.426;2022-10-17T18:15:26;102363.91;;;15.17;100.00
62420;BME280;48460;51.616;5.426;2022-10-17T18:18:21;102361.16;;;15.19;100.00
62420;BME280;48460;51.616;5.426;2022-10-17T18:21:11;102366.47;;;15.19;100.00
62420;BME280;48460;51.616;5.426;2022-10-17T18:24:23;102369.97;;;15.19;100.00
62420;BME280;48460;51.616;5.426;2022-10-17T18:27:15;102376.56;;;15.11;100.00
62420;BME280;48460;51.616;5.426;2022-10-17T18:29:46;102386.25;;;15.12;100.00
62420;BME280;48460;51.616;5.426;2022-10-17T18:32:30;102378.44;;;15.09;100.00
62420;BME280;48460;51.616;5.426;2022-10-17T18:34:58;102373.44;;;15.02;100.00
62420;BME280;48460;51.616;5.426;2022-10-17T18:37:46;102390.03;;;15.06;100.00
62420;BME280;48460;51.616;5.426;2022-10-17T18:40:18;102384.09;;;15.01;100.00
62420;BME280;48460;51.616;5.426;2022-10-17T18:42:49;102389.03;;;15.09;100.00
62420;BME280;48460;51.616;5.426;2022-10-17T18:45:18;102384.81;;;15.04;100.00
62420;BME280;48460;51.616;5.426;2022-10-17T18:47:47;102377.09;;;15.00;100.00
62420;BME280;48460;51.616;5.426;2022-10-17T18:50:20;102391.09;;;15.02;100.00
62420;BME280;48460;51.616;5.426;2022-10-17T18:52:58;102390.19;;;15.03;100.00
62420;BME280;48460;51.616;5.426;2022-10-17T18:55:27;102388.59;;;14.99;100.00
62420;BME280;48460;51.616;5.426;2022-10-17T18:57:53;102392.97;;;15.00;100.00
62420;BME280;48460;51.616;5.426;2022-10-17T19:00:27;102406.13;;;15.01;100.00
62420;BME280;48460;51.616;5.426;2022-10-17T19:02:57;102395.69;;;14.98;100.00
62420;BME280;48460;51.616;5.426;2022-10-17T19:05:24;102403.63;;;14.98;100.00
62420;BME280;48460;51.616;5.426;2022-10-17T19:08:14;102392.31;;;14.95;100.00
62420;BME280;48460;51.616;5.426;2022-10-17T19:10:41;102395.09;;;14.92;100.00
62420;BME280;48460;51.616;5.426;2022-10-17T19:13:08;102388.97;;;14.91;100.00
62420;BME280;48460;51.616;5.426;2022-10-17T19:16:17;102392.31;;;14.95;100.00
62420;BME280;48460;51.616;5.426;2022-10-17T19:19:12;102396.91;;;14.91;100.00
62420;BME280;48460;51.616;5.426;2022-10-17T19:21:47;102399.47;;;14.93;100.00
62420;BME280;48460;51.616;5.426;2022-10-17T19:24:31;102395.25;;;14.89;100.00
62420;BME280;48460;51.616;5.426;2022-10-17T19:27:19;102403.06;;;14.92;100.00
62420;BME280;48460;51.616;5.426;2022-10-17T19:29:47;102406.41;;;14.95;100.00
62420;BME280;48460;51.616;5.426;2022-10-17T19:32:33;102397.69;;;14.93;100.00
62420;BME280;48460;51.616;5.426;2022-10-17T19:35:30;102408.16;;;14.96;100.00
62420;BME280;48460;51.616;5.426;2022-10-17T19:38:26;102401.41;;;14.89;100.00
62420;BME280;48460;51.616;5.426;2022-10-17T19:41:09;102409.28;;;14.91;100.00
62420;BME280;48460;51.616;5.426;2022-10-17T19:43:40;102410.19;;;14.90;100.00
62420;BME280;48460;51.616;5.426;2022-10-17T19:46:42;102415.16;;;14.97;100.00
62420;BME280;48460;51.616;5.426;2022-10-17T19:49:11;102416.03;;;14.98;100.00
62420;BME280;48460;51.616;5.426;2022-10-17T19:51:46;102411.56;;;14.98;100.00
62420;BME280;48460;51.616;5.426;2022-10-17T19:54:18;102409.88;;;14.97;100.00
62420;BME280;48460;51.616;5.426;2022-10-17T19:56:45;102409.91;;;14.96;100.00
62420;BME280;48460;51.616;5.426;2022-10-17T19:59:16;102418.53;;;15.01;100.00
62420;BME280;48460;51.616;5.426;2022-10-17T20:01:42;102416.59;;;15.04;100.00
62420;BME280;48460;51.616;5.426;2022-10-17T20:04:12;102410.72;;;14.98;100.00
62420;BME280;48460;51.616;5.426;2022-10-17T20:06:56;102402.88;;;14.96;100.00
62420;BME280;48460;51.616;5.426;2022-10-17T20:09:30;102416.88;;;14.98;100.00
62420;BME280;48460;51.616;5.426;2022-10-17T20:12:04;102438.94;;;14.99;100.00
62420;BME280;48460;51.616;5.426;2022-10-17T20:14:32;102432.72;;;15.00;100.00
62420;BME280;48460;51.616;5.426;2022-10-17T20:16:59;102424.91;;;14.97;100.00
62420;BME280;48460;51.616;5.426;2022-10-17T20:19:25;102420.59;;;14.94;100.00
62420;BME280;48460;51.616;5.426;2022-10-17T20:21:56;102418.00;;;14.93;100.00
62420;BME280;48460;51.616;5.426;2022-10-17T20:27:37;102428.59;;;14.93;100.00
62420;BME280;48460;51.616;5.426;2022-10-17T20:33:35;102428.59;;;14.93;100.00
62420;BME280;48460;51.616;5.426;2022-10-17T20:36:28;102428.69;;;14.91;100.00
62420;BME280;48460;51.616;5.426;2022-10-17T20:39:27;102434.97;;;14.89;100.00
62420;BME280;48460;51.616;5.426;2022-10-17T20:45:09;102439.63;;;14.84;100.00
62420;BME280;48460;51.616;5.426;2022-10-17T20:47:42;102447.38;;;14.88;100.00
62420;BME280;48460;51.616;5.426;2022-10-17T20:50:36;102444.19;;;14.80;100.00
62420;BME280;48460;51.616;5.426;2022-10-17T20:53:04;102447.78;;;14.79;100.00
62420;BME280;48460;51.616;5.426;2022-10-17T20:55:30;102445.19;;;14.77;100.00
62420;BME280;48460;51.616;5.426;2022-10-17T20:57:58;102457.56;;;14.77;100.00
62420;BME280;48460;51.616;5.426;2022-10-17T21:00:25;102455.19;;;14.71;100.00
62420;BME280;48460;51.616;5.426;2022-10-17T21:02:55;102470.69;;;14.80;100.00
62420;BME280;48460;51.616;5.426;2022-10-17T21:05:45;102473.53;;;14.75;100.00
62420;BME280;48460;51.616;5.426;2022-10-17T21:08:57;102463.13;;;14.71;100.00
62420;BME280;48460;51.616;5.426;2022-10-17T21:12:31;102472.88;;;14.70;100.00
62420;BME280;48460;51.616;5.426;2022-10-17T21:19:31;102473.00;;;14.67;100.00
62420;BME280;48460;51.616;5.426;2022-10-17T21:22:09;102475.78;;;14.64;100.00
62420;BME280;48460;51.616;5.426;2022-10-17T21:25:20;102475.13;;;14.59;100.00
62420;BME280;48460;51.616;5.426;2022-10-17T21:27:51;102481.41;;;14.56;100.00
62420;BME280;48460;51.616;5.426;2022-10-17T21:33:06;102488.53;;;14.54;100.00
62420;BME280;48460;51.616;5.426;2022-10-17T21:35:33;102492.06;;;14.55;100.00
62420;BME280;48460;51.616;5.426;2022-10-17T21:38:10;102489.78;;;14.46;100.00
62420;BME280;48460;51.616;5.426;2022-10-17T21:40:45;102488.84;;;14.47;100.00
62420;BME280;48460;51.616;5.426;2022-10-17T21:43:23;102495.94;;;14.46;100.00
62420;BME280;48460;51.616;5.426;2022-10-17T21:45:50;102480.44;;;14.37;100.00
62420;BME280;48460;51.616;5.426;2022-10-17T21:48:25;102487.38;;;14.40;100.00
62420;BME280;48460;51.616;5.426;2022-10-17T21:51:25;102482.28;;;14.35;100.00
62420;BME280;48460;51.616;5.426;2022-10-17T21:54:04;102481.69;;;14.28;100.00
62420;BME280;48460;51.616;5.426;2022-10-17T21:56:35;102490.72;;;14.23;100.00
62420;BME280;48460;51.616;5.426;2022-10-17T21:59:14;102494.28;;;14.22;100.00
62420;BME280;48460;51.616;5.426;2022-10-17T22:01:51;102500.50;;;14.21;100.00
62420;BME280;48460;51.616;5.426;2022-10-17T22:04:20;102517.91;;;14.26;100.00
62420;BME280;48460;51.616;5.426;2022-10-17T22:07:17;102512.69;;;14.25;100.00
62420;BME280;48460;51.616;5.426;2022-10-17T22:09:54;102512.63;;;14.26;100.00
62420;BME280;48460;51.616;5.426;2022-10-17T22:12:48;102511.81;;;14.24;100.00
62420;BME280;48460;51.616;5.426;2022-10-17T22:15:17;102504.13;;;14.18;100.00
62420;BME280;48460;51.616;5.426;2022-10-17T22:17:46;102517.44;;;14.17;100.00
62420;BME280;48460;51.616;5.426;2022-10-17T22:20:13;102518.47;;;14.12;100.00
62420;BME280;48460;51.616;5.426;2022-10-17T22:22:48;102518.34;;;14.16;100.00
62420;BME280;48460;51.616;5.426;2022-10-17T22:25:23;102528.88;;;14.17;100.00
62420;BME280;48460;51.616;5.426;2022-10-17T22:27:53;102517.69;;;14.10;100.00
62420;BME280;48460;51.616;5.426;2022-10-17T22:30:46;102521.09;;;14.12;100.00
62420;BME280;48460;51.616;5.426;2022-10-17T22:33:25;102521.19;;;14.11;100.00
62420;BME280;48460;51.616;5.426;2022-10-17T22:35:55;102523.72;;;14.14;100.00
62420;BME280;48460;51.616;5.426;2022-10-17T22:38:26;102513.16;;;14.12;100.00
62420;BME280;48460;51.616;5.426;2022-10-17T22:41:00;102510.59;;;14.11;100.00
62420;BME280;48460;51.616;5.426;2022-10-17T22:43:26;102505.44;;;14.08;100.00
62420;BME280;48460;51.616;5.426;2022-10-17T22:45:57;102515.94;;;14.09;100.00
62420;BME280;48460;51.616;5.426;2022-10-17T22:48:24;102518.66;;;14.08;100.00
62420;BME280;48460;51.616;5.426;2022-10-17T22:50:54;102522.03;;;14.11;100.00
62420;BME280;48460;51.616;5.426;2022-10-17T22:53:25;102524.69;;;14.11;100.00
62420;BME280;48460;51.616;5.426;2022-10-17T22:58:21;102518.72;;;14.06;100.00
62420;BME280;48460;51.616;5.426;2022-10-17T23:00:51;102537.91;;;14.11;100.00
62420;BME280;48460;51.616;5.426;2022-10-17T23:03:22;102527.56;;;14.05;100.00
62420;BME280;48460;51.616;5.426;2022-10-17T23:05:51;102527.47;;;14.08;100.00
62420;BME280;48460;51.616;5.426;2022-10-17T23:08:17;102526.66;;;14.06;100.00
62420;BME280;48460;51.616;5.426;2022-10-17T23:10:46;102535.28;;;14.11;100.00
62420;BME280;48460;51.616;5.426;2022-10-17T23:13:15;102529.16;;;14.09;100.00
62420;BME280;48460;51.616;5.426;2022-10-17T23:15:43;102534.34;;;14.12;100.00
62420;BME280;48460;51.616;5.426;2022-10-17T23:18:09;102530.09;;;14.08;100.00
62420;BME280;48460;51.616;5.426;2022-10-17T23:20:35;102541.25;;;14.17;100.00
62420;BME280;48460;51.616;5.426;2022-10-17T23:23:04;102525.41;;;14.15;100.00
62420;BME280;48460;51.616;5.426;2022-10-17T23:25:34;102530.59;;;14.18;100.00
62420;BME280;48460;51.616;5.426;2022-10-17T23:28:00;102534.03;;;14.20;100.00
62420;BME280;48460;51.616;5.426;2022-10-17T23:30:31;102534.84;;;14.22;100.00
62420;BME280;48460;51.616;5.426;2022-10-17T23:33:09;102538.22;;;14.26;100.00
62420;BME280;48460;51.616;5.426;2022-10-17T23:35:37;102525.16;;;14.21;100.00
62420;BME280;48460;51.616;5.426;2022-10-17T23:38:04;102542.53;;;14.28;100.00
62420;BME280;48460;51.616;5.426;2022-10-17T23:40:31;102534.03;;;14.20;100.00
62420;BME280;48460;51.616;5.426;2022-10-17T23:43:03;102529.47;;;14.24;100.00
62420;BME280;48460;51.616;5.426;2022-10-17T23:45:30;102536.53;;;14.25;100.00
62420;BME280;48460;51.616;5.426;2022-10-17T23:48:04;102531.31;;;14.22;100.00
62420;BME280;48460;51.616;5.426;2022-10-17T23:50:32;102521.88;;;14.16;100.00
62420;BME280;48460;51.616;5.426;2022-10-17T23:52:58;102542.97;;;14.18;100.00
62420;BME280;48460;51.616;5.426;2022-10-17T23:55:31;102531.56;;;14.16;100.00
62420;BME280;48460;51.616;5.426;2022-10-17T23:58:06;102537.63;;;14.19;100.00
